AVA8535 SKMR-SKCG
Flight info
| Callsign | AVA8535 |
|---|---|
| Flight time | 0h 25m |
| Altitude | 10000 |
| Route | IRAXU2G IRAXU W8 CTG |
| Aircraft | A320/M-SDE3FGHIRWY/LB1 |
Departure
| Time | 2026-05-04 04:13 |
|---|---|
| Airport | Los Garzones Airport (SKMR) |
Arrival
| Time | 2026-05-04 04:39 |
|---|---|
| Airport | Rafael Nuñez International Airport (SKCG) |
| Time | Latitude | Longitude | Altitude | Speed | Heading |
|---|---|---|---|---|---|
| 2026-05-04 04:07 | 8.82428 | -75.82518 | 36 ft | 0 kts | 318° |
| 2026-05-04 04:08 | 8.82458 | -75.82579 | 35 ft | 15 kts | 281° |
| 2026-05-04 04:08 | 8.82433 | -75.82648 | 33 ft | 4 kts | 171° |
| 2026-05-04 04:08 | 8.82407 | -75.82626 | 42 ft | 12 kts | 142° |
| 2026-05-04 04:08 | 8.82297 | -75.82526 | 33 ft | 24 kts | 137° |
| 2026-05-04 04:09 | 8.82167 | -75.82408 | 32 ft | 26 kts | 138° |
| 2026-05-04 04:09 | 8.82015 | -75.82269 | 32 ft | 34 kts | 137° |
| 2026-05-04 04:09 | 8.81827 | -75.82099 | 30 ft | 37 kts | 139° |
| 2026-05-04 04:09 | 8.81649 | -75.81935 | 31 ft | 27 kts | 134° |
| 2026-05-04 04:10 | 8.81581 | -75.81860 | 31 ft | 1 kts | 235° |
| 2026-05-04 04:10 | 8.81584 | -75.81872 | 31 ft | 4 kts | 283° |
| 2026-05-04 04:10 | 8.81620 | -75.81912 | 30 ft | 4 kts | 316° |
| 2026-05-04 04:10 | 8.81625 | -75.81917 | 30 ft | 0 kts | 316° |
| 2026-05-04 04:13 | 8.81848 | -75.82121 | 31 ft | 92 kts | 318° |
| 2026-05-04 04:13 | 8.82536 | -75.82750 | 100 ft | 164 kts | 318° |
| 2026-05-04 04:13 | 8.83444 | -75.83550 | 828 ft | 182 kts | 320° |
| 2026-05-04 04:14 | 8.84451 | -75.84354 | 1547 ft | 189 kts | 328° |
| 2026-05-04 04:14 | 8.85742 | -75.84631 | 1585 ft | 195 kts | 12° |
| 2026-05-04 04:14 | 8.87009 | -75.84156 | 1593 ft | 195 kts | 27° |
| 2026-05-04 04:14 | 8.88216 | -75.83530 | 1589 ft | 195 kts | 28° |
| 2026-05-04 04:15 | 8.89411 | -75.82917 | 1588 ft | 195 kts | 27° |
| 2026-05-04 04:15 | 8.90637 | -75.82332 | 1587 ft | 195 kts | 25° |
| 2026-05-04 04:15 | 8.91881 | -75.81780 | 1595 ft | 195 kts | 24° |
| 2026-05-04 04:15 | 8.93136 | -75.81252 | 1589 ft | 195 kts | 22° |
| 2026-05-04 04:16 | 8.94401 | -75.80745 | 1585 ft | 195 kts | 22° |
| 2026-05-04 04:16 | 8.95712 | -75.80316 | 1594 ft | 210 kts | 15° |
| 2026-05-04 04:16 | 8.97217 | -75.79923 | 1583 ft | 242 kts | 14° |
| 2026-05-04 04:16 | 8.98930 | -75.79486 | 1592 ft | 260 kts | 13° |
| 2026-05-04 04:17 | 9.00661 | -75.79047 | 1590 ft | 260 kts | 14° |
| 2026-05-04 04:17 | 9.02415 | -75.78603 | 1588 ft | 260 kts | 14° |
| 2026-05-04 04:17 | 9.04173 | -75.78159 | 1588 ft | 260 kts | 13° |
| 2026-05-04 04:17 | 9.05932 | -75.77716 | 1587 ft | 260 kts | 13° |
| 2026-05-04 04:18 | 9.07697 | -75.77315 | 1594 ft | 261 kts | 12° |
| 2026-05-04 04:18 | 9.09505 | -75.76931 | 2241 ft | 267 kts | 11° |
| 2026-05-04 04:18 | 9.11310 | -75.76553 | 3419 ft | 264 kts | 11° |
| 2026-05-04 04:18 | 9.13122 | -75.76174 | 4446 ft | 268 kts | 11° |
| 2026-05-04 04:19 | 9.14939 | -75.75795 | 5389 ft | 272 kts | 11° |
| 2026-05-04 04:19 | 9.16808 | -75.75403 | 6302 ft | 277 kts | 12° |
| 2026-05-04 04:19 | 9.18711 | -75.75000 | 7197 ft | 281 kts | 12° |
| 2026-05-04 04:19 | 9.20637 | -75.74591 | 8050 ft | 285 kts | 12° |
| 2026-05-04 04:20 | 9.22245 | -75.74248 | 8749 ft | 289 kts | 13° |
| 2026-05-04 04:20 | 9.24224 | -75.73826 | 9542 ft | 293 kts | 13° |
| 2026-05-04 04:20 | 9.26247 | -75.73396 | 9901 ft | 297 kts | 13° |
| 2026-05-04 04:20 | 9.28271 | -75.72965 | 10010 ft | 297 kts | 13° |
| 2026-05-04 04:21 | 9.29610 | -75.72679 | 10026 ft | 297 kts | 13° |
| 2026-05-04 04:22 | 9.30580 | -75.72457 | 10099 ft | 296 kts | 14° |
| 2026-05-04 04:22 | 9.32601 | -75.71990 | 10025 ft | 297 kts | 13° |
| 2026-05-04 04:22 | 9.34619 | -75.71559 | 10016 ft | 297 kts | 13° |
| 2026-05-04 04:22 | 9.36645 | -75.71140 | 10022 ft | 297 kts | 13° |
| 2026-05-04 04:23 | 9.38665 | -75.70722 | 10018 ft | 297 kts | 13° |
| 2026-05-04 04:23 | 9.40689 | -75.70302 | 10024 ft | 296 kts | 13° |
| 2026-05-04 04:23 | 9.42709 | -75.69879 | 10015 ft | 296 kts | 13° |
| 2026-05-04 04:23 | 9.44701 | -75.69458 | 10020 ft | 297 kts | 13° |
| 2026-05-04 04:24 | 9.46722 | -75.69030 | 10016 ft | 297 kts | 13° |
| 2026-05-04 04:24 | 9.48742 | -75.68600 | 10012 ft | 297 kts | 13° |
| 2026-05-04 04:24 | 9.50761 | -75.68169 | 10014 ft | 297 kts | 13° |
| 2026-05-04 04:24 | 9.52781 | -75.67740 | 10012 ft | 297 kts | 13° |
| 2026-05-04 04:25 | 9.54803 | -75.67309 | 10010 ft | 297 kts | 13° |
| 2026-05-04 04:25 | 9.56825 | -75.66877 | 10014 ft | 297 kts | 13° |
| 2026-05-04 04:25 | 9.58819 | -75.66449 | 10011 ft | 297 kts | 13° |
| 2026-05-04 04:25 | 9.60839 | -75.66015 | 10015 ft | 297 kts | 13° |
| 2026-05-04 04:26 | 9.62861 | -75.65581 | 10017 ft | 297 kts | 13° |
| 2026-05-04 04:26 | 9.64887 | -75.65149 | 10018 ft | 297 kts | 13° |
| 2026-05-04 04:26 | 9.66913 | -75.64717 | 10015 ft | 297 kts | 13° |
| 2026-05-04 04:26 | 9.68938 | -75.64286 | 10018 ft | 298 kts | 13° |
| 2026-05-04 04:27 | 9.70966 | -75.63852 | 10020 ft | 298 kts | 13° |
| 2026-05-04 04:27 | 9.72991 | -75.63417 | 10019 ft | 298 kts | 13° |
| 2026-05-04 04:27 | 9.75019 | -75.62984 | 10021 ft | 298 kts | 13° |
| 2026-05-04 04:27 | 9.77022 | -75.62555 | 10025 ft | 298 kts | 13° |
| 2026-05-04 04:28 | 9.79050 | -75.62122 | 10028 ft | 298 kts | 13° |
| 2026-05-04 04:28 | 9.81080 | -75.61690 | 9875 ft | 297 kts | 13° |
| 2026-05-04 04:28 | 9.83099 | -75.61260 | 9749 ft | 296 kts | 13° |
| 2026-05-04 04:28 | 9.85117 | -75.60830 | 9619 ft | 296 kts | 13° |
| 2026-05-04 04:29 | 9.87130 | -75.60401 | 9498 ft | 295 kts | 13° |
| 2026-05-04 04:29 | 9.89141 | -75.59971 | 9382 ft | 295 kts | 13° |
| 2026-05-04 04:29 | 9.91142 | -75.59541 | 9167 ft | 293 kts | 13° |
| 2026-05-04 04:29 | 9.93127 | -75.59117 | 8782 ft | 291 kts | 13° |
| 2026-05-04 04:30 | 9.95104 | -75.58694 | 8369 ft | 290 kts | 13° |
| 2026-05-04 04:30 | 9.97049 | -75.58278 | 7966 ft | 289 kts | 13° |
| 2026-05-04 04:30 | 9.99014 | -75.57856 | 7504 ft | 289 kts | 13° |
| 2026-05-04 04:30 | 10.00979 | -75.57434 | 7087 ft | 288 kts | 12° |
| 2026-05-04 04:31 | 10.02937 | -75.57014 | 6677 ft | 286 kts | 13° |
| 2026-05-04 04:31 | 10.04878 | -75.56597 | 6206 ft | 285 kts | 12° |
| 2026-05-04 04:31 | 10.06811 | -75.56184 | 5818 ft | 283 kts | 12° |
| 2026-05-04 04:31 | 10.08727 | -75.55773 | 5409 ft | 279 kts | 12° |
| 2026-05-04 04:32 | 10.10620 | -75.55368 | 4860 ft | 274 kts | 12° |
| 2026-05-04 04:32 | 10.12342 | -75.55004 | 4436 ft | 263 kts | 12° |
| 2026-05-04 04:32 | 10.14132 | -75.54622 | 4029 ft | 262 kts | 12° |
| 2026-05-04 04:32 | 10.15863 | -75.54252 | 3960 ft | 247 kts | 11° |
| 2026-05-04 04:33 | 10.17499 | -75.53904 | 3878 ft | 234 kts | 11° |
| 2026-05-04 04:33 | 10.19054 | -75.53571 | 3784 ft | 223 kts | 11° |
| 2026-05-04 04:33 | 10.20556 | -75.53248 | 3686 ft | 218 kts | 11° |
| 2026-05-04 04:33 | 10.22007 | -75.52936 | 3589 ft | 209 kts | 11° |
| 2026-05-04 04:34 | 10.22936 | -75.52737 | 3531 ft | 203 kts | 11° |
| 2026-05-04 04:34 | 10.24293 | -75.52445 | 3444 ft | 196 kts | 11° |
| 2026-05-04 04:34 | 10.25591 | -75.52182 | 3354 ft | 184 kts | 8° |
| 2026-05-04 04:34 | 10.27238 | -75.52013 | 3087 ft | 176 kts | 3° |
| 2026-05-04 04:35 | 10.28432 | -75.51948 | 2862 ft | 168 kts | 2° |
| 2026-05-04 04:35 | 10.29558 | -75.51896 | 2658 ft | 155 kts | 1° |
| 2026-05-04 04:35 | 10.30254 | -75.51865 | 2519 ft | 148 kts | 0° |
| 2026-05-04 04:35 | 10.31272 | -75.51822 | 2324 ft | 145 kts | 0° |
| 2026-05-04 04:36 | 10.32283 | -75.51781 | 2131 ft | 145 kts | 1° |
| 2026-05-04 04:36 | 10.33291 | -75.51739 | 1941 ft | 144 kts | 2° |
| 2026-05-04 04:36 | 10.34302 | -75.51696 | 1744 ft | 146 kts | 2° |
| 2026-05-04 04:36 | 10.35639 | -75.51642 | 1501 ft | 142 kts | 2° |
| 2026-05-04 04:37 | 10.38195 | -75.51538 | 1002 ft | 136 kts | 2° |
| 2026-05-04 04:37 | 10.39141 | -75.51499 | 823 ft | 136 kts | 2° |
| 2026-05-04 04:38 | 10.40086 | -75.51460 | 642 ft | 136 kts | 2° |
| 2026-05-04 04:38 | 10.41028 | -75.51422 | 461 ft | 135 kts | 1° |
| 2026-05-04 04:38 | 10.41969 | -75.51379 | 279 ft | 136 kts | 1° |
| 2026-05-04 04:38 | 10.42907 | -75.51350 | 81 ft | 135 kts | 2° |
| 2026-05-04 04:39 | 10.43762 | -75.51311 | 13 ft | 92 kts | 2° |
| 2026-05-04 04:39 | 10.44114 | -75.51297 | 12 ft | 18 kts | 2° |
| 2026-05-04 04:39 | 10.44205 | -75.51292 | 12 ft | 24 kts | 3° |
| 2026-05-04 04:39 | 10.44435 | -75.51284 | 17 ft | 34 kts | 1° |
| 2026-05-04 04:40 | 10.44541 | -75.51351 | 15 ft | 17 kts | 281° |
| 2026-05-04 04:40 | 10.44545 | -75.51470 | 14 ft | 12 kts | 252° |
| 2026-05-04 04:40 | 10.44524 | -75.51518 | 14 ft | 5 kts | 260° |
| 2026-05-04 04:40 | 10.44523 | -75.51544 | 14 ft | 2 kts | 268° |
| 2026-05-04 04:41 | 10.44523 | -75.51553 | 14 ft | 1 kts | 273° |
| 2026-05-04 04:41 | 10.44523 | -75.51559 | 14 ft | 1 kts | 272° |
| 2026-05-04 04:41 | 10.44523 | -75.51564 | 14 ft | 0 kts | 270° |
| 2026-05-04 04:41 | 10.44523 | -75.51565 | 14 ft | 0 kts | 270° |